sensor_id;sensor_type;location;lat;lon;timestamp;temperature;humidity
69031;DHT22;56083;48.774;8.942;2023-02-01T00:01:42;2.70;99.90
69031;DHT22;56083;48.774;8.942;2023-02-01T00:04:07;2.70;99.90
69031;DHT22;56083;48.774;8.942;2023-02-01T00:06:33;2.70;99.90
69031;DHT22;56083;48.774;8.942;2023-02-01T00:08:59;2.70;99.90
69031;DHT22;56083;48.774;8.942;2023-02-01T00:11:25;2.80;99.90
69031;DHT22;56083;48.774;8.942;2023-02-01T00:13:51;2.80;99.90
69031;DHT22;56083;48.774;8.942;2023-02-01T00:16:19;2.80;99.90
69031;DHT22;56083;48.774;8.942;2023-02-01T00:18:46;2.80;99.90
69031;DHT22;56083;48.774;8.942;2023-02-01T00:21:13;2.70;99.90
69031;DHT22;56083;48.774;8.942;2023-02-01T00:23:40;2.80;99.90
69031;DHT22;56083;48.774;8.942;2023-02-01T00:26:07;2.80;99.90
69031;DHT22;56083;48.774;8.942;2023-02-01T00:28:36;2.80;99.90
69031;DHT22;56083;48.774;8.942;2023-02-01T00:31:03;2.80;99.90
69031;DHT22;56083;48.774;8.942;2023-02-01T00:33:30;2.80;99.90
69031;DHT22;56083;48.774;8.942;2023-02-01T00:35:57;2.80;99.90
69031;DHT22;56083;48.774;8.942;2023-02-01T00:38:24;2.80;99.90
69031;DHT22;56083;48.774;8.942;2023-02-01T00:40:50;2.80;99.90
69031;DHT22;56083;48.774;8.942;2023-02-01T00:43:15;2.80;99.90
69031;DHT22;56083;48.774;8.942;2023-02-01T00:45:41;2.80;99.90
69031;DHT22;56083;48.774;8.942;2023-02-01T00:48:06;2.80;99.90
69031;DHT22;56083;48.774;8.942;2023-02-01T00:50:32;2.90;99.90
69031;DHT22;56083;48.774;8.942;2023-02-01T00:52:58;2.80;99.90
69031;DHT22;56083;48.774;8.942;2023-02-01T00:55:24;2.80;99.90
69031;DHT22;56083;48.774;8.942;2023-02-01T00:57:49;2.80;99.90
69031;DHT22;56083;48.774;8.942;2023-02-01T01:00:15;2.80;99.90
69031;DHT22;56083;48.774;8.942;2023-02-01T01:02:43;2.80;99.90
69031;DHT22;56083;48.774;8.942;2023-02-01T01:05:09;2.80;99.90
69031;DHT22;56083;48.774;8.942;2023-02-01T01:07:34;2.80;99.90
69031;DHT22;56083;48.774;8.942;2023-02-01T01:10:00;2.70;99.90
69031;DHT22;56083;48.774;8.942;2023-02-01T01:12:26;2.70;99.90
69031;DHT22;56083;48.774;8.942;2023-02-01T01:14:51;2.70;99.90
69031;DHT22;56083;48.774;8.942;2023-02-01T01:17:17;2.70;99.90
69031;DHT22;56083;48.774;8.942;2023-02-01T01:19:43;2.70;99.90
69031;DHT22;56083;48.774;8.942;2023-02-01T01:22:08;2.70;99.90
69031;DHT22;56083;48.774;8.942;2023-02-01T01:24:34;2.70;99.90
69031;DHT22;56083;48.774;8.942;2023-02-01T01:26:59;2.70;99.90
69031;DHT22;56083;48.774;8.942;2023-02-01T01:29:25;2.70;99.90
69031;DHT22;56083;48.774;8.942;2023-02-01T01:31:51;2.70;99.90
69031;DHT22;56083;48.774;8.942;2023-02-01T01:34:16;2.80;99.90
69031;DHT22;56083;48.774;8.942;2023-02-01T01:36:42;2.80;99.90
69031;DHT22;56083;48.774;8.942;2023-02-01T01:39:07;2.80;99.90
69031;DHT22;56083;48.774;8.942;2023-02-01T01:41:33;2.80;99.90
69031;DHT22;56083;48.774;8.942;2023-02-01T01:44:53;2.80;99.90
69031;DHT22;56083;48.774;8.942;2023-02-01T01:46:52;2.80;99.90
69031;DHT22;56083;48.774;8.942;2023-02-01T01:49:21;2.80;99.90
69031;DHT22;56083;48.774;8.942;2023-02-01T01:51:54;2.80;99.90
69031;DHT22;56083;48.774;8.942;2023-02-01T01:54:25;2.80;99.90
69031;DHT22;56083;48.774;8.942;2023-02-01T01:56:57;2.80;99.90
69031;DHT22;56083;48.774;8.942;2023-02-01T01:59:24;2.90;99.90
69031;DHT22;56083;48.774;8.942;2023-02-01T02:01:51;2.90;99.90
69031;DHT22;56083;48.774;8.942;2023-02-01T02:04:17;2.90;99.90
69031;DHT22;56083;48.774;8.942;2023-02-01T02:09:20;3.00;99.90
69031;DHT22;56083;48.774;8.942;2023-02-01T02:11:46;3.00;99.90
69031;DHT22;56083;48.774;8.942;2023-02-01T02:14:13;3.00;99.90
69031;DHT22;56083;48.774;8.942;2023-02-01T02:30:43;3.00;99.90
69031;DHT22;56083;48.774;8.942;2023-02-01T02:33:37;3.00;99.90
69031;DHT22;56083;48.774;8.942;2023-02-01T02:39:50;3.00;99.90
69031;DHT22;56083;48.774;8.942;2023-02-01T02:42:25;3.10;99.90
69031;DHT22;56083;48.774;8.942;2023-02-01T02:45:23;3.00;99.90
69031;DHT22;56083;48.774;8.942;2023-02-01T02:48:18;3.00;99.90
69031;DHT22;56083;48.774;8.942;2023-02-01T02:51:13;3.00;99.90
69031;DHT22;56083;48.774;8.942;2023-02-01T02:54:15;2.90;99.90
69031;DHT22;56083;48.774;8.942;2023-02-01T02:57:05;2.90;99.90
69031;DHT22;56083;48.774;8.942;2023-02-01T02:59:52;2.80;99.90
69031;DHT22;56083;48.774;8.942;2023-02-01T03:02:37;2.80;99.90
69031;DHT22;56083;48.774;8.942;2023-02-01T03:05:22;2.80;99.90
69031;DHT22;56083;48.774;8.942;2023-02-01T03:10:35;2.80;99.90
69031;DHT22;56083;48.774;8.942;2023-02-01T03:13:14;2.80;99.90
69031;DHT22;56083;48.774;8.942;2023-02-01T03:15:44;2.80;99.90
69031;DHT22;56083;48.774;8.942;2023-02-01T03:18:18;2.90;99.90
69031;DHT22;56083;48.774;8.942;2023-02-01T03:20:47;2.90;99.90
69031;DHT22;56083;48.774;8.942;2023-02-01T03:23:16;2.90;99.90
69031;DHT22;56083;48.774;8.942;2023-02-01T03:25:44;2.90;99.90
69031;DHT22;56083;48.774;8.942;2023-02-01T03:28:12;2.90;99.90
69031;DHT22;56083;48.774;8.942;2023-02-01T03:30:42;2.80;99.90
69031;DHT22;56083;48.774;8.942;2023-02-01T03:33:16;2.80;99.90
69031;DHT22;56083;48.774;8.942;2023-02-01T03:41:23;2.80;99.90
69031;DHT22;56083;48.774;8.942;2023-02-01T03:43:52;2.90;99.90
69031;DHT22;56083;48.774;8.942;2023-02-01T03:46:31;2.90;99.90
69031;DHT22;56083;48.774;8.942;2023-02-01T03:49:05;2.90;99.90
69031;DHT22;56083;48.774;8.942;2023-02-01T03:51:32;3.00;99.90
69031;DHT22;56083;48.774;8.942;2023-02-01T03:53:59;3.00;99.90
69031;DHT22;56083;48.774;8.942;2023-02-01T03:56:28;3.00;99.90
69031;DHT22;56083;48.774;8.942;2023-02-01T03:58:55;3.00;99.90
69031;DHT22;56083;48.774;8.942;2023-02-01T04:01:28;3.00;99.90
69031;DHT22;56083;48.774;8.942;2023-02-01T04:03:55;3.10;99.90
69031;DHT22;56083;48.774;8.942;2023-02-01T04:06:21;3.30;99.90
69031;DHT22;56083;48.774;8.942;2023-02-01T04:08:46;3.30;99.90
69031;DHT22;56083;48.774;8.942;2023-02-01T04:11:12;3.40;99.90
69031;DHT22;56083;48.774;8.942;2023-02-01T04:13:38;3.50;99.90
69031;DHT22;56083;48.774;8.942;2023-02-01T04:16:03;3.50;99.90
69031;DHT22;56083;48.774;8.942;2023-02-01T04:18:29;3.60;99.90
69031;DHT22;56083;48.774;8.942;2023-02-01T04:20:55;3.60;99.90
69031;DHT22;56083;48.774;8.942;2023-02-01T04:23:21;3.70;99.90
69031;DHT22;56083;48.774;8.942;2023-02-01T04:25:46;3.70;99.90
69031;DHT22;56083;48.774;8.942;2023-02-01T04:28:12;3.70;99.90
69031;DHT22;56083;48.774;8.942;2023-02-01T04:30:38;3.70;99.90
69031;DHT22;56083;48.774;8.942;2023-02-01T04:33:03;3.70;99.90
69031;DHT22;56083;48.774;8.942;2023-02-01T04:35:31;3.80;99.90
69031;DHT22;56083;48.774;8.942;2023-02-01T04:37:57;3.80;99.90
69031;DHT22;56083;48.774;8.942;2023-02-01T04:40:23;3.90;99.90
69031;DHT22;56083;48.774;8.942;2023-02-01T04:42:48;3.80;99.90
69031;DHT22;56083;48.774;8.942;2023-02-01T04:45:14;3.80;99.90
69031;DHT22;56083;48.774;8.942;2023-02-01T04:47:40;3.90;99.90
69031;DHT22;56083;48.774;8.942;2023-02-01T04:50:06;3.90;99.90
69031;DHT22;56083;48.774;8.942;2023-02-01T04:52:33;3.90;99.90
69031;DHT22;56083;48.774;8.942;2023-02-01T04:54:58;3.90;99.90
69031;DHT22;56083;48.774;8.942;2023-02-01T04:57:25;3.90;99.90
69031;DHT22;56083;48.774;8.942;2023-02-01T04:59:51;3.90;99.90
69031;DHT22;56083;48.774;8.942;2023-02-01T05:02:16;3.90;99.90
69031;DHT22;56083;48.774;8.942;2023-02-01T05:04:42;3.90;99.90
69031;DHT22;56083;48.774;8.942;2023-02-01T05:07:08;3.90;99.90
69031;DHT22;56083;48.774;8.942;2023-02-01T05:09:33;3.90;99.90
69031;DHT22;56083;48.774;8.942;2023-02-01T05:11:59;3.90;99.90
69031;DHT22;56083;48.774;8.942;2023-02-01T05:14:43;3.90;99.90
69031;DHT22;56083;48.774;8.942;2023-02-01T05:17:09;3.90;99.90
69031;DHT22;56083;48.774;8.942;2023-02-01T05:19:34;3.90;99.90
69031;DHT22;56083;48.774;8.942;2023-02-01T05:22:00;3.90;99.90
69031;DHT22;56083;48.774;8.942;2023-02-01T05:24:25;3.90;99.90
69031;DHT22;56083;48.774;8.942;2023-02-01T05:26:52;3.90;99.90
69031;DHT22;56083;48.774;8.942;2023-02-01T05:29:18;4.00;99.90
69031;DHT22;56083;48.774;8.942;2023-02-01T05:31:47;4.00;99.90
69031;DHT22;56083;48.774;8.942;2023-02-01T05:34:14;4.00;99.90
69031;DHT22;56083;48.774;8.942;2023-02-01T05:36:40;4.00;99.90
69031;DHT22;56083;48.774;8.942;2023-02-01T05:39:05;3.90;99.90
69031;DHT22;56083;48.774;8.942;2023-02-01T05:41:31;3.80;99.90
69031;DHT22;56083;48.774;8.942;2023-02-01T05:43:57;3.80;99.90
69031;DHT22;56083;48.774;8.942;2023-02-01T05:46:22;3.70;99.90
69031;DHT22;56083;48.774;8.942;2023-02-01T05:48:48;3.60;99.90
69031;DHT22;56083;48.774;8.942;2023-02-01T05:51:14;3.60;99.90
69031;DHT22;56083;48.774;8.942;2023-02-01T05:53:39;3.60;99.90
69031;DHT22;56083;48.774;8.942;2023-02-01T05:56:06;3.60;99.90
69031;DHT22;56083;48.774;8.942;2023-02-01T05:58:31;3.60;99.90
69031;DHT22;56083;48.774;8.942;2023-02-01T06:01:00;3.60;99.90
69031;DHT22;56083;48.774;8.942;2023-02-01T06:03:26;3.60;99.90
69031;DHT22;56083;48.774;8.942;2023-02-01T06:05:52;3.50;99.90
69031;DHT22;56083;48.774;8.942;2023-02-01T06:08:18;3.60;99.90
69031;DHT22;56083;48.774;8.942;2023-02-01T06:10:44;3.70;99.90
69031;DHT22;56083;48.774;8.942;2023-02-01T06:13:09;3.70;99.90
69031;DHT22;56083;48.774;8.942;2023-02-01T06:15:35;3.80;99.90
69031;DHT22;56083;48.774;8.942;2023-02-01T06:18:03;3.80;99.90
69031;DHT22;56083;48.774;8.942;2023-02-01T06:20:29;3.80;99.90
69031;DHT22;56083;48.774;8.942;2023-02-01T06:22:54;3.90;99.90
69031;DHT22;56083;48.774;8.942;2023-02-01T06:25:20;4.00;99.90
69031;DHT22;56083;48.774;8.942;2023-02-01T06:27:46;4.00;99.90
69031;DHT22;56083;48.774;8.942;2023-02-01T06:30:13;4.00;99.90
69031;DHT22;56083;48.774;8.942;2023-02-01T06:32:41;4.10;99.90
69031;DHT22;56083;48.774;8.942;2023-02-01T06:35:08;4.10;99.90
69031;DHT22;56083;48.774;8.942;2023-02-01T06:37:37;4.20;99.90
69031;DHT22;56083;48.774;8.942;2023-02-01T06:40:03;4.20;99.90
69031;DHT22;56083;48.774;8.942;2023-02-01T06:42:29;4.20;99.90
69031;DHT22;56083;48.774;8.942;2023-02-01T06:44:55;4.20;99.90
69031;DHT22;56083;48.774;8.942;2023-02-01T06:47:20;4.20;99.90
69031;DHT22;56083;48.774;8.942;2023-02-01T06:49:46;4.30;99.90
69031;DHT22;56083;48.774;8.942;2023-02-01T06:52:12;4.30;99.90
69031;DHT22;56083;48.774;8.942;2023-02-01T06:54:37;4.30;99.90
69031;DHT22;56083;48.774;8.942;2023-02-01T06:57:03;4.30;99.90
69031;DHT22;56083;48.774;8.942;2023-02-01T06:59:29;4.40;99.90
69031;DHT22;56083;48.774;8.942;2023-02-01T07:01:54;4.40;99.90
69031;DHT22;56083;48.774;8.942;2023-02-01T07:04:20;4.40;99.90
69031;DHT22;56083;48.774;8.942;2023-02-01T07:06:46;4.40;99.90
69031;DHT22;56083;48.774;8.942;2023-02-01T07:09:11;4.40;99.90
69031;DHT22;56083;48.774;8.942;2023-02-01T07:11:39;4.50;99.90
69031;DHT22;56083;48.774;8.942;2023-02-01T07:14:09;4.50;99.90
69031;DHT22;56083;48.774;8.942;2023-02-01T07:16:34;4.50;99.90
69031;DHT22;56083;48.774;8.942;2023-02-01T07:19:00;4.50;99.90
69031;DHT22;56083;48.774;8.942;2023-02-01T07:21:26;4.50;99.90
69031;DHT22;56083;48.774;8.942;2023-02-01T07:23:53;4.50;99.90
69031;DHT22;56083;48.774;8.942;2023-02-01T07:26:19;4.50;99.90
69031;DHT22;56083;48.774;8.942;2023-02-01T07:28:45;4.50;99.90
69031;DHT22;56083;48.774;8.942;2023-02-01T07:31:14;4.50;99.90
69031;DHT22;56083;48.774;8.942;2023-02-01T07:33:48;4.50;99.90
69031;DHT22;56083;48.774;8.942;2023-02-01T07:36:16;4.50;99.90
69031;DHT22;56083;48.774;8.942;2023-02-01T07:38:43;4.60;99.90
69031;DHT22;56083;48.774;8.942;2023-02-01T07:41:09;4.60;99.90
69031;DHT22;56083;48.774;8.942;2023-02-01T07:43:35;4.60;99.90
69031;DHT22;56083;48.774;8.942;2023-02-01T07:46:02;4.60;99.90
69031;DHT22;56083;48.774;8.942;2023-02-01T07:48:29;4.70;99.90
69031;DHT22;56083;48.774;8.942;2023-02-01T07:53:25;4.80;99.90
69031;DHT22;56083;48.774;8.942;2023-02-01T07:55:50;4.80;99.90
69031;DHT22;56083;48.774;8.942;2023-02-01T07:58:16;4.80;99.90
69031;DHT22;56083;48.774;8.942;2023-02-01T08:00:42;4.80;99.90
69031;DHT22;56083;48.774;8.942;2023-02-01T08:03:26;4.80;99.90
69031;DHT22;56083;48.774;8.942;2023-02-01T08:05:55;4.80;99.90
69031;DHT22;56083;48.774;8.942;2023-02-01T08:08:21;4.80;99.90
69031;DHT22;56083;48.774;8.942;2023-02-01T08:10:47;4.80;99.90
69031;DHT22;56083;48.774;8.942;2023-02-01T08:13:13;4.80;99.90
69031;DHT22;56083;48.774;8.942;2023-02-01T08:15:39;4.80;99.90
69031;DHT22;56083;48.774;8.942;2023-02-01T08:18:04;4.80;99.90
69031;DHT22;56083;48.774;8.942;2023-02-01T08:20:30;4.80;99.90
69031;DHT22;56083;48.774;8.942;2023-02-01T08:22:56;4.90;99.90
69031;DHT22;56083;48.774;8.942;2023-02-01T08:25:23;4.90;99.90
69031;DHT22;56083;48.774;8.942;2023-02-01T08:27:49;4.90;99.90
69031;DHT22;56083;48.774;8.942;2023-02-01T08:30:15;5.00;99.90
69031;DHT22;56083;48.774;8.942;2023-02-01T08:32:40;5.00;99.90
69031;DHT22;56083;48.774;8.942;2023-02-01T08:35:06;5.10;99.90
69031;DHT22;56083;48.774;8.942;2023-02-01T08:37:33;5.20;99.90
69031;DHT22;56083;48.774;8.942;2023-02-01T08:39:59;5.40;99.90
69031;DHT22;56083;48.774;8.942;2023-02-01T08:42:24;5.50;99.90
69031;DHT22;56083;48.774;8.942;2023-02-01T08:45:09;5.60;99.90
69031;DHT22;56083;48.774;8.942;2023-02-01T08:47:35;5.60;99.90
69031;DHT22;56083;48.774;8.942;2023-02-01T08:50:00;5.70;99.90
69031;DHT22;56083;48.774;8.942;2023-02-01T08:52:26;5.70;99.90
69031;DHT22;56083;48.774;8.942;2023-02-01T08:54:52;5.60;99.90
69031;DHT22;56083;48.774;8.942;2023-02-01T08:57:17;5.50;99.90
69031;DHT22;56083;48.774;8.942;2023-02-01T08:59:43;5.40;99.90
69031;DHT22;56083;48.774;8.942;2023-02-01T09:02:13;5.40;99.90
69031;DHT22;56083;48.774;8.942;2023-02-01T09:04:40;5.30;99.90
69031;DHT22;56083;48.774;8.942;2023-02-01T09:07:06;5.20;99.90
69031;DHT22;56083;48.774;8.942;2023-02-01T09:09:32;5.20;99.90
69031;DHT22;56083;48.774;8.942;2023-02-01T09:11:57;5.10;99.90
69031;DHT22;56083;48.774;8.942;2023-02-01T09:14:23;5.10;99.90
69031;DHT22;56083;48.774;8.942;2023-02-01T09:16:48;5.10;99.90
69031;DHT22;56083;48.774;8.942;2023-02-01T09:19:14;5.10;99.90
69031;DHT22;56083;48.774;8.942;2023-02-01T09:21:40;5.10;99.90
69031;DHT22;56083;48.774;8.942;2023-02-01T09:24:06;5.10;99.90
69031;DHT22;56083;48.774;8.942;2023-02-01T09:26:32;5.10;99.90
69031;DHT22;56083;48.774;8.942;2023-02-01T09:28:59;5.20;99.90
69031;DHT22;56083;48.774;8.942;2023-02-01T09:31:24;5.30;99.90
69031;DHT22;56083;48.774;8.942;2023-02-01T09:33:50;5.50;99.90
69031;DHT22;56083;48.774;8.942;2023-02-01T09:36:16;5.60;99.90
69031;DHT22;56083;48.774;8.942;2023-02-01T09:38:41;6.00;99.90
69031;DHT22;56083;48.774;8.942;2023-02-01T09:44:20;6.60;99.90
69031;DHT22;56083;48.774;8.942;2023-02-01T09:46:54;6.60;99.90
69031;DHT22;56083;48.774;8.942;2023-02-01T09:49:30;6.60;99.90
69031;DHT22;56083;48.774;8.942;2023-02-01T09:51:56;6.50;99.90
69031;DHT22;56083;48.774;8.942;2023-02-01T09:54:26;6.70;99.90
69031;DHT22;56083;48.774;8.942;2023-02-01T09:57:22;6.60;99.90
69031;DHT22;56083;48.774;8.942;2023-02-01T10:00:00;6.80;99.90
69031;DHT22;56083;48.774;8.942;2023-02-01T10:02:28;6.80;99.90
69031;DHT22;56083;48.774;8.942;2023-02-01T10:04:57;6.60;99.90
69031;DHT22;56083;48.774;8.942;2023-02-01T10:10:49;6.10;99.90
69031;DHT22;56083;48.774;8.942;2023-02-01T10:13:38;5.90;99.90
69031;DHT22;56083;48.774;8.942;2023-02-01T10:16:35;5.70;99.90
69031;DHT22;56083;48.774;8.942;2023-02-01T10:22:09;5.70;99.90
69031;DHT22;56083;48.774;8.942;2023-02-01T10:24:42;5.80;99.90
69031;DHT22;56083;48.774;8.942;2023-02-01T10:27:25;5.90;99.90
69031;DHT22;56083;48.774;8.942;2023-02-01T10:29:59;5.90;99.90
69031;DHT22;56083;48.774;8.942;2023-02-01T10:32:33;6.00;99.90
69031;DHT22;56083;48.774;8.942;2023-02-01T10:35:12;5.80;99.90
69031;DHT22;56083;48.774;8.942;2023-02-01T10:37:41;5.80;99.90
69031;DHT22;56083;48.774;8.942;2023-02-01T10:42:41;5.80;99.90
69031;DHT22;56083;48.774;8.942;2023-02-01T10:45:13;5.80;99.90
69031;DHT22;56083;48.774;8.942;2023-02-01T10:47:41;5.80;99.90
69031;DHT22;56083;48.774;8.942;2023-02-01T10:50:29;5.80;99.90
69031;DHT22;56083;48.774;8.942;2023-02-01T10:53:14;5.90;99.90
69031;DHT22;56083;48.774;8.942;2023-02-01T10:55:46;5.90;99.90
69031;DHT22;56083;48.774;8.942;2023-02-01T10:58:19;5.90;99.90
69031;DHT22;56083;48.774;8.942;2023-02-01T11:03:50;5.90;99.90
69031;DHT22;56083;48.774;8.942;2023-02-01T11:06:37;5.90;99.90
69031;DHT22;56083;48.774;8.942;2023-02-01T11:11:32;6.00;99.90
69031;DHT22;56083;48.774;8.942;2023-02-01T11:14:00;6.00;99.90
69031;DHT22;56083;48.774;8.942;2023-02-01T11:16:34;6.00;99.90
69031;DHT22;56083;48.774;8.942;2023-02-01T11:18:59;6.00;99.90
69031;DHT22;56083;48.774;8.942;2023-02-01T11:21:25;6.00;99.90
69031;DHT22;56083;48.774;8.942;2023-02-01T11:23:51;6.10;99.90
69031;DHT22;56083;48.774;8.942;2023-02-01T11:26:23;6.30;99.90
69031;DHT22;56083;48.774;8.942;2023-02-01T11:29:01;6.30;99.90
69031;DHT22;56083;48.774;8.942;2023-02-01T11:31:28;7.00;99.90
69031;DHT22;56083;48.774;8.942;2023-02-01T11:34:15;7.30;99.90
69031;DHT22;56083;48.774;8.942;2023-02-01T11:36:41;6.80;99.90
69031;DHT22;56083;48.774;8.942;2023-02-01T11:39:35;7.10;99.90
69031;DHT22;56083;48.774;8.942;2023-02-01T11:42:05;7.60;99.90
69031;DHT22;56083;48.774;8.942;2023-02-01T11:44:44;8.70;99.90
69031;DHT22;56083;48.774;8.942;2023-02-01T11:49:49;8.10;99.90
69031;DHT22;56083;48.774;8.942;2023-02-01T12:05:48;6.20;99.90
69031;DHT22;56083;48.774;8.942;2023-02-01T12:08:31;6.70;99.90
69031;DHT22;56083;48.774;8.942;2023-02-01T12:19:23;6.10;99.90
69031;DHT22;56083;48.774;8.942;2023-02-01T12:25:05;5.70;99.90
69031;DHT22;56083;48.774;8.942;2023-02-01T12:35:17;5.60;99.90
69031;DHT22;56083;48.774;8.942;2023-02-01T12:43:59;5.40;99.90
69031;DHT22;56083;48.774;8.942;2023-02-01T12:49:05;5.40;99.90
69031;DHT22;56083;48.774;8.942;2023-02-01T12:51:37;5.40;99.90
69031;DHT22;56083;48.774;8.942;2023-02-01T12:54:22;5.40;99.90
69031;DHT22;56083;48.774;8.942;2023-02-01T12:56:58;5.40;99.90
69031;DHT22;56083;48.774;8.942;2023-02-01T13:02:42;5.40;99.90
69031;DHT22;56083;48.774;8.942;2023-02-01T13:05:16;5.40;99.90
69031;DHT22;56083;48.774;8.942;2023-02-01T13:07:53;5.30;99.90
69031;DHT22;56083;48.774;8.942;2023-02-01T13:10:49;5.40;99.90
69031;DHT22;56083;48.774;8.942;2023-02-01T13:18:36;5.30;99.90
69031;DHT22;56083;48.774;8.942;2023-02-01T13:21:12;5.30;99.90
69031;DHT22;56083;48.774;8.942;2023-02-01T13:23:41;5.30;99.90
69031;DHT22;56083;48.774;8.942;2023-02-01T13:26:08;5.20;99.90
69031;DHT22;56083;48.774;8.942;2023-02-01T13:28:44;5.20;99.90
69031;DHT22;56083;48.774;8.942;2023-02-01T13:31:28;5.20;99.90
69031;DHT22;56083;48.774;8.942;2023-02-01T13:42:54;5.20;99.90
69031;DHT22;56083;48.774;8.942;2023-02-01T13:45:27;5.20;99.90
69031;DHT22;56083;48.774;8.942;2023-02-01T13:47:58;5.20;99.90
69031;DHT22;56083;48.774;8.942;2023-02-01T13:57:49;5.20;99.90
69031;DHT22;56083;48.774;8.942;2023-02-01T14:08:12;5.30;99.90
69031;DHT22;56083;48.774;8.942;2023-02-01T14:13:27;5.30;99.90
69031;DHT22;56083;48.774;8.942;2023-02-01T14:23:45;5.20;99.90
69031;DHT22;56083;48.774;8.942;2023-02-01T14:26:21;5.20;99.90
69031;DHT22;56083;48.774;8.942;2023-02-01T14:31:48;5.20;99.90
69031;DHT22;56083;48.774;8.942;2023-02-01T14:34:39;5.20;99.90
69031;DHT22;56083;48.774;8.942;2023-02-01T14:37:23;5.20;99.90
69031;DHT22;56083;48.774;8.942;2023-02-01T14:39:58;5.20;99.90
69031;DHT22;56083;48.774;8.942;2023-02-01T14:47:52;5.10;99.90
69031;DHT22;56083;48.774;8.942;2023-02-01T14:55:39;5.10;99.90
69031;DHT22;56083;48.774;8.942;2023-02-01T15:00:47;5.10;99.90
69031;DHT22;56083;48.774;8.942;2023-02-01T15:06:42;5.10;99.90
69031;DHT22;56083;48.774;8.942;2023-02-01T15:09:36;5.10;99.90
69031;DHT22;56083;48.774;8.942;2023-02-01T15:14:46;5.10;99.90
69031;DHT22;56083;48.774;8.942;2023-02-01T15:17:22;5.10;99.90
69031;DHT22;56083;48.774;8.942;2023-02-01T15:20:00;5.10;99.90
69031;DHT22;56083;48.774;8.942;2023-02-01T15:22:28;5.10;99.90
69031;DHT22;56083;48.774;8.942;2023-02-01T15:24:56;5.20;99.90
69031;DHT22;56083;48.774;8.942;2023-02-01T15:27:23;5.20;99.90
69031;DHT22;56083;48.774;8.942;2023-02-01T15:29:48;5.10;99.90
69031;DHT22;56083;48.774;8.942;2023-02-01T15:32:32;5.20;99.90
69031;DHT22;56083;48.774;8.942;2023-02-01T15:34:58;5.20;99.90
69031;DHT22;56083;48.774;8.942;2023-02-01T15:37:26;5.20;99.90
69031;DHT22;56083;48.774;8.942;2023-02-01T15:40:23;5.20;99.90
69031;DHT22;56083;48.774;8.942;2023-02-01T15:42:57;5.30;99.90
69031;DHT22;56083;48.774;8.942;2023-02-01T15:45:31;5.40;99.90
69031;DHT22;56083;48.774;8.942;2023-02-01T15:47:58;5.40;99.90
69031;DHT22;56083;48.774;8.942;2023-02-01T15:50:26;5.40;99.90
69031;DHT22;56083;48.774;8.942;2023-02-01T15:52:53;5.40;99.90
69031;DHT22;56083;48.774;8.942;2023-02-01T15:55:35;5.40;99.90
69031;DHT22;56083;48.774;8.942;2023-02-01T15:58:22;5.40;99.90
69031;DHT22;56083;48.774;8.942;2023-02-01T16:00:55;5.40;99.90
69031;DHT22;56083;48.774;8.942;2023-02-01T16:06:00;5.30;99.90
69031;DHT22;56083;48.774;8.942;2023-02-01T16:08:29;5.30;99.90
69031;DHT22;56083;48.774;8.942;2023-02-01T16:11:01;5.30;99.90
69031;DHT22;56083;48.774;8.942;2023-02-01T16:13:38;5.30;99.90
69031;DHT22;56083;48.774;8.942;2023-02-01T16:16:07;5.30;99.90
69031;DHT22;56083;48.774;8.942;2023-02-01T16:18:41;5.20;99.90
69031;DHT22;56083;48.774;8.942;2023-02-01T16:21:07;5.20;99.90
69031;DHT22;56083;48.774;8.942;2023-02-01T16:23:35;5.20;99.90
69031;DHT22;56083;48.774;8.942;2023-02-01T16:26:01;5.20;99.90
69031;DHT22;56083;48.774;8.942;2023-02-01T16:28:26;5.10;99.90
69031;DHT22;56083;48.774;8.942;2023-02-01T16:30:52;5.20;99.90
69031;DHT22;56083;48.774;8.942;2023-02-01T16:33:19;5.20;99.90
69031;DHT22;56083;48.774;8.942;2023-02-01T16:35:47;5.10;99.90
69031;DHT22;56083;48.774;8.942;2023-02-01T16:38:15;5.10;99.90
69031;DHT22;56083;48.774;8.942;2023-02-01T16:40:44;5.10;99.90
69031;DHT22;56083;48.774;8.942;2023-02-01T16:43:15;5.10;99.90
69031;DHT22;56083;48.774;8.942;2023-02-01T16:45:46;5.10;99.90
69031;DHT22;56083;48.774;8.942;2023-02-01T16:50:47;5.10;99.90
69031;DHT22;56083;48.774;8.942;2023-02-01T16:53:16;5.10;99.90
69031;DHT22;56083;48.774;8.942;2023-02-01T16:55:42;5.10;99.90
69031;DHT22;56083;48.774;8.942;2023-02-01T16:58:09;5.10;99.90
69031;DHT22;56083;48.774;8.942;2023-02-01T17:00:35;5.10;99.90
69031;DHT22;56083;48.774;8.942;2023-02-01T17:03:03;5.10;99.90
69031;DHT22;56083;48.774;8.942;2023-02-01T17:05:31;5.10;99.90
69031;DHT22;56083;48.774;8.942;2023-02-01T17:08:00;5.10;99.90
69031;DHT22;56083;48.774;8.942;2023-02-01T17:10:29;5.20;99.90
69031;DHT22;56083;48.774;8.942;2023-02-01T17:12:55;5.20;99.90
69031;DHT22;56083;48.774;8.942;2023-02-01T17:15:23;5.20;99.90
69031;DHT22;56083;48.774;8.942;2023-02-01T17:17:50;5.20;99.90
69031;DHT22;56083;48.774;8.942;2023-02-01T17:20:21;5.20;99.90
69031;DHT22;56083;48.774;8.942;2023-02-01T17:22:47;5.20;99.90
69031;DHT22;56083;48.774;8.942;2023-02-01T17:25:18;5.20;99.90
69031;DHT22;56083;48.774;8.942;2023-02-01T17:27:44;5.10;99.90
69031;DHT22;56083;48.774;8.942;2023-02-01T17:30:12;5.10;99.90
69031;DHT22;56083;48.774;8.942;2023-02-01T17:32:38;5.10;99.90
69031;DHT22;56083;48.774;8.942;2023-02-01T17:35:04;5.10;99.90
69031;DHT22;56083;48.774;8.942;2023-02-01T17:37:33;5.10;99.90
69031;DHT22;56083;48.774;8.942;2023-02-01T17:39:59;5.10;99.90
69031;DHT22;56083;48.774;8.942;2023-02-01T17:42:27;5.10;99.90
69031;DHT22;56083;48.774;8.942;2023-02-01T17:44:56;5.10;99.90
69031;DHT22;56083;48.774;8.942;2023-02-01T17:47:22;5.10;99.90
69031;DHT22;56083;48.774;8.942;2023-02-01T17:49:48;5.10;99.90
69031;DHT22;56083;48.774;8.942;2023-02-01T17:52:20;5.10;99.90
69031;DHT22;56083;48.774;8.942;2023-02-01T17:54:46;5.10;99.90
69031;DHT22;56083;48.774;8.942;2023-02-01T17:57:15;5.00;99.90
69031;DHT22;56083;48.774;8.942;2023-02-01T17:59:41;5.00;99.90
69031;DHT22;56083;48.774;8.942;2023-02-01T18:02:18;5.00;99.90
69031;DHT22;56083;48.774;8.942;2023-02-01T18:04:44;5.00;99.90
69031;DHT22;56083;48.774;8.942;2023-02-01T18:07:10;5.00;99.90
69031;DHT22;56083;48.774;8.942;2023-02-01T18:09:35;5.10;99.90
69031;DHT22;56083;48.774;8.942;2023-02-01T18:12:03;5.10;99.90
69031;DHT22;56083;48.774;8.942;2023-02-01T18:14:29;5.10;99.90
69031;DHT22;56083;48.774;8.942;2023-02-01T18:16:55;5.10;99.90
69031;DHT22;56083;48.774;8.942;2023-02-01T18:19:21;5.10;99.90
69031;DHT22;56083;48.774;8.942;2023-02-01T18:21:46;5.10;99.90
69031;DHT22;56083;48.774;8.942;2023-02-01T18:24:13;5.00;99.90
69031;DHT22;56083;48.774;8.942;2023-02-01T18:26:39;5.10;99.90
69031;DHT22;56083;48.774;8.942;2023-02-01T18:29:05;5.10;99.90
69031;DHT22;56083;48.774;8.942;2023-02-01T18:31:32;5.00;99.90
69031;DHT22;56083;48.774;8.942;2023-02-01T18:33:58;5.00;99.90
69031;DHT22;56083;48.774;8.942;2023-02-01T18:36:25;5.00;99.90
69031;DHT22;56083;48.774;8.942;2023-02-01T18:38:51;5.00;99.90
69031;DHT22;56083;48.774;8.942;2023-02-01T18:41:20;5.00;99.90
69031;DHT22;56083;48.774;8.942;2023-02-01T18:43:48;5.00;99.90